Time;durP1;ratioP1;P1;durP2;ratioP2;P2;SDS_P1;SDS_P2;PMS_P1;PMS_P2;Temp;Humidity;BMP_temperature;BMP_pressure;BME280_temperature;BME280_humidity;BME280_pressure;Samples;Min_cycle;Max_cycle;Signal;HPM_P1;HPM_P2
2023/01/18 00:00:26;;;;;;;14.07;6.97;;;-0.50;99.90;;;;;;5014344;28;20426;-89
2023/01/18 00:02:53;;;;;;;14.40;7.83;;;-0.50;99.90;;;;;;4996827;28;20631;-89
2023/01/18 00:05:21;;;;;;;13.53;7.27;;;-0.60;99.90;;;;;;5013700;28;20469;-89
2023/01/18 00:07:47;;;;;;;23.23;9.63;;;-0.60;99.90;;;;;;5014076;28;20901;-84
2023/01/18 00:10:13;;;;;;;16.03;8.30;;;-0.50;99.90;;;;;;4995834;28;20520;-87
2023/01/18 00:12:38;;;;;;;17.47;9.63;;;-0.50;99.90;;;;;;4996597;28;20416;-89
2023/01/18 00:15:45;;;;;;;19.03;9.17;;;-0.50;99.90;;;;;;4996459;28;20186;-88
2023/01/18 00:18:11;;;;;;;20.00;10.07;;;-0.50;99.90;;;;;;4996616;28;20534;-88
2023/01/18 00:20:39;;;;;;;12.33;6.87;;;-0.50;99.90;;;;;;4996458;28;20826;-89
2023/01/18 00:23:05;;;;;;;12.17;6.20;;;-0.90;99.90;;;;;;4996289;28;20237;-90
2023/01/18 00:25:30;;;;;;;10.93;7.20;;;-0.40;99.90;;;;;;4996220;28;20474;-89
2023/01/18 00:28:05;;;;;;;14.20;9.03;;;-0.50;99.90;;;;;;4996468;28;20247;-91
2023/01/18 00:30:30;;;;;;;12.80;7.27;;;-0.40;99.90;;;;;;4996336;28;20282;-91
2023/01/18 00:32:57;;;;;;;21.93;8.97;;;-0.50;99.90;;;;;;4996740;28;20428;-89
2023/01/18 00:36:19;;;;;;;9.53;5.93;;;-0.40;99.90;;;;;;4957262;28;20191;-89
2023/01/18 00:39:11;;;;;;;12.30;6.60;;;-0.40;99.90;;;;;;4988917;28;20421;-88
2023/01/18 00:45:06;;;;;;;12.37;8.03;;;-0.40;99.90;;;;;;5014317;28;20488;-87
2023/01/18 00:47:54;;;;;;;11.40;6.77;;;-0.40;99.90;;;;;;5014627;28;20421;-89
2023/01/18 00:50:29;;;;;;;9.73;6.53;;;-0.50;99.90;;;;;;5000168;28;20433;-84
2023/01/18 00:53:24;;;;;;;11.53;7.77;;;-0.50;99.90;;;;;;5000489;28;20431;-91
2023/01/18 00:56:12;;;;;;;12.00;6.50;;;-0.60;99.90;;;;;;5016318;28;20564;-90
2023/01/18 00:58:38;;;;;;;12.80;6.10;;;-0.60;99.90;;;;;;4999965;28;21044;-89
2023/01/18 01:01:04;;;;;;;15.73;8.00;;;-0.60;99.90;;;;;;5006636;28;20425;-85
2023/01/18 01:06:42;;;;;;;13.20;6.40;;;-0.60;99.90;;;;;;4989303;28;20583;-86
2023/01/18 01:09:04;;;;;;;11.33;8.10;;;-0.60;99.90;;;;;;5017484;28;20411;-90
2023/01/18 01:11:30;;;;;;;9.73;5.80;;;-0.60;99.90;;;;;;4999253;28;20423;-89
2023/01/18 01:27:36;;;;;;;11.57;6.73;;;-0.70;99.90;;;;;;5016756;28;20428;-86
2023/01/18 01:30:06;;;;;;;10.97;7.33;;;-0.70;99.90;;;;;;5015779;28;20957;-90
2023/01/18 01:32:32;;;;;;;18.63;9.43;;;-0.80;99.90;;;;;;4998986;28;20252;-90
2023/01/18 01:34:57;;;;;;;13.93;6.67;;;-0.80;99.90;;;;;;4998565;28;20505;-90
2023/01/18 01:37:22;;;;;;;13.23;8.60;;;-0.80;99.90;;;;;;4998626;28;20620;-89
2023/01/18 01:39:55;;;;;;;24.27;8.83;;;-0.90;99.90;;;;;;4998252;28;20175;-88
2023/01/18 01:42:24;;;;;;;13.37;6.77;;;-0.90;99.90;;;;;;4998991;28;20175;-89
2023/01/18 01:44:50;;;;;;;22.90;9.87;;;-0.90;99.90;;;;;;5016034;28;20473;-90
2023/01/18 01:47:35;;;;;;;21.37;11.20;;;-0.90;99.90;;;;;;4998784;28;20893;-89
2023/01/18 01:50:08;;;;;;;16.30;8.20;;;-0.90;99.90;;;;;;4998299;28;20459;-83
2023/01/18 01:52:37;;;;;;;15.37;8.63;;;-0.90;99.90;;;;;;4998189;28;20933;-90
2023/01/18 01:55:14;;;;;;;10.87;6.93;;;-0.90;99.90;;;;;;4998399;28;20430;-86
2023/01/18 01:57:48;;;;;;;16.07;6.97;;;-1.00;99.90;;;;;;4998365;28;20772;-90
2023/01/18 02:00:29;;;;;;;16.60;8.80;;;-1.00;99.90;;;;;;5002979;28;20422;-91
2023/01/18 02:03:08;;;;;;;12.60;7.77;;;-1.10;99.90;;;;;;4998420;28;20421;-90
2023/01/18 02:05:55;;;;;;;14.47;6.33;;;-1.00;99.90;;;;;;4998684;28;20521;-90
2023/01/18 02:08:26;;;;;;;14.83;8.93;;;-1.10;99.90;;;;;;4982212;28;20424;-90
2023/01/18 02:10:51;;;;;;;20.90;10.33;;;-1.00;99.90;;;;;;4981790;28;20440;-87
2023/01/18 02:13:23;;;;;;;18.03;8.30;;;-1.10;99.90;;;;;;4997954;28;20488;-90
2023/01/18 02:16:00;;;;;;;13.80;9.17;;;-1.00;99.90;;;;;;4997902;28;20167;-90
2023/01/18 02:18:37;;;;;;;21.07;11.43;;;-1.00;99.90;;;;;;4997830;28;20519;-87
2023/01/18 02:21:29;;;;;;;16.07;8.40;;;-1.20;99.90;;;;;;4997991;28;20422;-88
2023/01/18 02:24:38;;;;;;;12.20;9.00;;;-1.20;99.90;;;;;;5015031;28;20555;-90
2023/01/18 02:27:45;;;;;;;12.37;8.07;;;-1.10;99.90;;;;;;4917957;28;20572;-91
2023/01/18 02:30:54;;;;;;;15.23;8.70;;;-1.10;99.90;;;;;;5007168;28;20488;-86
2023/01/18 02:33:44;;;;;;;17.40;10.03;;;-1.20;99.90;;;;;;5015086;28;20490;-90
2023/01/18 02:36:31;;;;;;;16.93;9.33;;;-1.20;99.90;;;;;;4997248;28;20417;-89
2023/01/18 02:39:22;;;;;;;19.70;9.57;;;-1.20;99.90;;;;;;4997545;28;20923;-91
2023/01/18 02:47:27;;;;;;;15.60;9.60;;;-1.30;99.90;;;;;;5015271;28;20444;-89
2023/01/18 02:49:55;;;;;;;13.27;7.43;;;-1.40;99.90;;;;;;5014626;28;20444;-88
2023/01/18 02:52:42;;;;;;;18.17;9.50;;;-1.50;99.90;;;;;;4996741;28;20501;-91
2023/01/18 02:55:26;;;;;;;17.00;8.30;;;-1.50;99.90;;;;;;4996660;28;20413;-89
2023/01/18 02:57:59;;;;;;;13.30;8.80;;;-1.60;99.90;;;;;;4997483;28;20405;-89
2023/01/18 03:00:25;;;;;;;12.13;9.60;;;-1.60;99.90;;;;;;4997003;28;20556;-90
2023/01/18 03:02:52;;;;;;;13.70;7.50;;;-1.60;99.90;;;;;;4997259;28;20511;-90
2023/01/18 03:05:21;;;;;;;20.90;9.83;;;-1.70;99.90;;;;;;4997274;28;20476;-88
2023/01/18 03:07:52;;;;;;;11.70;7.90;;;-1.60;99.90;;;;;;4997243;28;20509;-90
2023/01/18 03:10:19;;;;;;;11.63;6.17;;;-1.70;99.90;;;;;;4996071;28;20425;-88
2023/01/18 03:12:55;;;;;;;19.43;9.80;;;-1.70;99.90;;;;;;5014478;28;20505;-90
2023/01/18 03:15:23;;;;;;;16.40;8.80;;;-1.80;99.90;;;;;;4997135;28;20418;-89
2023/01/18 03:17:52;;;;;;;10.37;7.60;;;-1.70;99.90;;;;;;4997178;28;20411;-87
2023/01/18 03:20:24;;;;;;;13.23;7.53;;;-1.80;99.90;;;;;;4996981;28;20417;-91
2023/01/18 03:25:50;;;;;;;11.37;7.37;;;-1.60;99.90;;;;;;5014072;28;20523;-90
2023/01/18 03:34:13;;;;;;;13.97;8.30;;;-1.40;99.90;;;;;;5014636;28;20421;-88
2023/01/18 03:36:42;;;;;;;16.37;8.50;;;-1.40;99.90;;;;;;4996569;28;20427;-85
2023/01/18 03:39:31;;;;;;;18.37;8.73;;;-1.40;99.90;;;;;;4995985;28;20425;-89
2023/01/18 03:42:10;;;;;;;14.47;8.43;;;-1.30;99.90;;;;;;5013984;28;20504;-89
2023/01/18 03:45:01;;;;;;;15.90;8.27;;;-1.20;99.90;;;;;;4996439;28;20481;-86
2023/01/18 03:48:06;;;;;;;20.40;9.83;;;-1.30;99.90;;;;;;5002772;28;20433;-86
2023/01/18 03:51:13;;;;;;;17.70;9.70;;;-1.30;99.90;;;;;;4999438;28;20425;-89
2023/01/18 03:54:09;;;;;;;21.57;9.87;;;-1.30;99.90;;;;;;5014007;28;20431;-90
2023/01/18 03:56:56;;;;;;;17.10;8.53;;;-1.40;99.90;;;;;;4996050;28;20462;-89
2023/01/18 03:59:22;;;;;;;13.20;7.70;;;-1.60;99.90;;;;;;5003242;28;20451;-88
2023/01/18 04:01:48;;;;;;;13.60;8.77;;;-1.60;99.90;;;;;;5014665;28;20944;-89
2023/01/18 04:04:14;;;;;;;15.50;9.23;;;-1.60;99.90;;;;;;5013842;28;20493;-88
2023/01/18 04:06:40;;;;;;;16.97;10.40;;;-1.70;99.90;;;;;;5013769;28;20213;-86
2023/01/18 04:09:07;;;;;;;14.70;7.53;;;-1.80;99.90;;;;;;5014027;28;20279;-85
2023/01/18 04:11:32;;;;;;;14.30;7.37;;;-1.80;99.90;;;;;;5013595;28;20253;-91
2023/01/18 04:13:58;;;;;;;10.77;7.17;;;-1.90;99.90;;;;;;5013833;28;20441;-89
2023/01/18 04:16:23;;;;;;;16.47;9.70;;;-1.90;99.90;;;;;;5013841;28;20532;-89
2023/01/18 04:18:49;;;;;;;14.77;8.90;;;-1.80;99.90;;;;;;5014169;28;20227;-88
2023/01/18 04:21:14;;;;;;;18.73;9.53;;;-1.90;99.90;;;;;;5013713;28;20217;-88
2023/01/18 04:23:40;;;;;;;12.37;9.27;;;-2.00;99.90;;;;;;5000126;28;20181;-87
2023/01/18 04:26:05;;;;;;;17.63;8.57;;;-1.90;99.90;;;;;;5017092;28;20177;-89
2023/01/18 04:28:33;;;;;;;14.67;7.53;;;-2.20;99.90;;;;;;5017448;28;20176;-89
2023/01/18 04:30:58;;;;;;;18.40;11.00;;;-2.20;99.90;;;;;;5017548;28;20175;-87
2023/01/18 04:33:25;;;;;;;15.63;8.23;;;-2.10;99.90;;;;;;5016351;28;20425;-89
2023/01/18 04:35:53;;;;;;;14.27;7.77;;;;;;;;;;4999902;28;20178;-89
2023/01/18 04:38:21;;;;;;;13.70;7.80;;;-2.20;99.90;;;;;;5017454;28;20452;-90
2023/01/18 04:40:47;;;;;;;15.83;9.13;;;-2.30;99.90;;;;;;5016987;28;20485;-90
2023/01/18 04:43:13;;;;;;;15.10;8.13;;;-2.30;99.90;;;;;;4999819;28;20475;-89
2023/01/18 04:45:38;;;;;;;15.33;8.37;;;-2.30;99.90;;;;;;4999700;28;20237;-90
2023/01/18 04:48:04;;;;;;;14.77;7.93;;;-2.30;99.90;;;;;;4999392;28;20541;-91
2023/01/18 04:50:29;;;;;;;23.30;11.40;;;-2.30;99.90;;;;;;5016718;28;20256;-92
2023/01/18 04:52:56;;;;;;;15.80;8.40;;;-2.30;99.90;;;;;;4999696;28;20201;-90
2023/01/18 04:55:21;;;;;;;17.37;9.50;;;-2.30;99.90;;;;;;4999214;28;20174;-91
2023/01/18 04:57:54;;;;;;;14.83;8.10;;;-2.30;99.90;;;;;;4999871;28;20754;-91
2023/01/18 05:00:23;;;;;;;12.80;9.00;;;-2.30;99.90;;;;;;5000406;28;20189;-90
2023/01/18 05:02:51;;;;;;;16.13;8.33;;;-2.30;99.90;;;;;;4999225;28;20468;-90
2023/01/18 05:05:16;;;;;;;18.13;9.67;;;-2.40;99.90;;;;;;4999089;28;20476;-90
2023/01/18 05:07:42;;;;;;;14.13;6.97;;;-2.40;99.90;;;;;;4999169;28;20425;-89
2023/01/18 05:10:11;;;;;;;12.60;8.90;;;-2.40;99.90;;;;;;5016482;28;20175;-89
2023/01/18 05:12:37;;;;;;;14.60;9.10;;;-2.50;99.90;;;;;;5017103;28;20663;-90
2023/01/18 05:15:04;;;;;;;12.03;8.83;;;-2.50;99.90;;;;;;4999214;28;20429;-90
2023/01/18 05:17:33;;;;;;;10.87;7.90;;;-2.40;99.90;;;;;;4982960;28;20426;-90
2023/01/18 05:20:00;;;;;;;16.20;8.97;;;-2.20;99.90;;;;;;5016635;28;20414;-87
2023/01/18 05:22:28;;;;;;;11.93;7.87;;;-2.10;99.90;;;;;;4999033;28;20449;-88
2023/01/18 05:24:55;;;;;;;12.07;8.70;;;-2.10;99.90;;;;;;4969214;28;20482;-85
2023/01/18 05:27:20;;;;;;;14.00;8.67;;;-2.10;99.90;;;;;;4987328;28;20428;-84
2023/01/18 05:29:49;;;;;;;11.40;8.57;;;-2.00;99.90;;;;;;4996928;28;20315;-89
2023/01/18 05:32:14;;;;;;;14.60;7.07;;;-2.00;99.90;;;;;;4996810;28;20262;-89
2023/01/18 05:34:42;;;;;;;12.60;7.57;;;-2.00;99.90;;;;;;4978725;28;20557;-90
2023/01/18 05:37:08;;;;;;;15.43;9.10;;;-2.00;99.90;;;;;;4979594;28;20179;-90
2023/01/18 05:39:38;;;;;;;8.60;6.10;;;-2.00;99.90;;;;;;4963031;28;20440;-91
2023/01/18 05:42:04;;;;;;;16.93;9.37;;;-2.00;99.90;;;;;;4997125;28;20438;-91
2023/01/18 05:44:33;;;;;;;16.10;8.90;;;-2.10;99.90;;;;;;4963039;28;20509;-91
2023/01/18 05:46:59;;;;;;;12.43;6.70;;;-2.10;99.90;;;;;;4984174;28;20246;-91
2023/01/18 05:49:25;;;;;;;11.70;6.47;;;-2.10;99.90;;;;;;4979149;28;20455;-91
2023/01/18 05:51:50;;;;;;;11.87;7.63;;;-2.20;99.90;;;;;;4979014;28;20172;-88
2023/01/18 05:54:16;;;;;;;18.37;9.17;;;-2.20;99.90;;;;;;4978676;28;20516;-91
2023/01/18 05:56:42;;;;;;;13.10;6.50;;;-2.30;99.90;;;;;;4978966;28;20183;-87
2023/01/18 05:59:09;;;;;;;9.97;6.47;;;-2.40;99.90;;;;;;4962891;28;20183;-90
2023/01/18 06:01:35;;;;;;;10.83;7.97;;;-2.20;99.90;;;;;;4996458;28;20167;-89
2023/01/18 06:04:00;;;;;;;16.13;9.50;;;-2.10;99.90;;;;;;4978969;28;20857;-90
2023/01/18 06:06:26;;;;;;;9.40;6.93;;;-2.20;99.90;;;;;;4996046;28;20198;-85
2023/01/18 06:08:51;;;;;;;16.33;7.80;;;-2.30;99.90;;;;;;4978719;28;20177;-90
2023/01/18 06:11:22;;;;;;;12.80;8.37;;;-2.30;99.90;;;;;;4978327;28;20630;-91
2023/01/18 06:13:51;;;;;;;14.20;7.20;;;-2.30;99.90;;;;;;4979388;28;20174;-91
2023/01/18 06:16:16;;;;;;;11.77;7.63;;;-2.40;99.90;;;;;;4979121;28;20935;-91
2023/01/18 06:18:42;;;;;;;14.60;7.90;;;-2.40;99.90;;;;;;4978702;28;20428;-90
2023/01/18 06:21:09;;;;;;;17.53;8.67;;;-2.50;99.90;;;;;;4978929;28;20177;-89
2023/01/18 06:23:37;;;;;;;15.13;7.70;;;-2.50;99.90;;;;;;4978045;28;20659;-88
2023/01/18 06:26:03;;;;;;;13.03;9.40;;;-2.50;99.90;;;;;;4947481;28;21154;-89
2023/01/18 06:28:35;;;;;;;11.73;6.50;;;-2.50;99.90;;;;;;5013261;28;20419;-90
2023/01/18 06:31:03;;;;;;;13.90;8.80;;;-2.50;99.90;;;;;;5013931;28;20431;-87
2023/01/18 06:33:29;;;;;;;16.37;6.50;;;-2.50;99.90;;;;;;5014011;28;20443;-89
2023/01/18 06:35:54;;;;;;;8.73;7.67;;;-2.40;99.90;;;;;;5013449;28;20615;-88
2023/01/18 06:38:20;;;;;;;10.40;7.40;;;-2.40;99.90;;;;;;5012699;28;20214;-87
2023/01/18 06:40:45;;;;;;;10.13;5.70;;;-2.40;99.90;;;;;;4996153;28;20258;-88
2023/01/18 06:43:12;;;;;;;12.60;6.50;;;-2.50;99.90;;;;;;5014690;28;20178;-90
2023/01/18 06:45:38;;;;;;;10.93;6.63;;;-2.50;99.90;;;;;;5012290;28;20214;-87
2023/01/18 06:48:04;;;;;;;11.70;7.47;;;-2.70;99.90;;;;;;5013216;28;20479;-88
2023/01/18 06:50:29;;;;;;;10.47;7.67;;;-2.70;99.90;;;;;;5014423;28;20434;-88
2023/01/18 06:52:55;;;;;;;13.37;7.77;;;-2.60;99.90;;;;;;5014331;28;20186;-84
2023/01/18 06:55:21;;;;;;;11.30;7.03;;;-2.60;99.90;;;;;;5018023;28;20182;-86
2023/01/18 06:57:49;;;;;;;16.83;9.50;;;-2.80;99.90;;;;;;5016424;28;20519;-89
2023/01/18 07:00:18;;;;;;;13.87;7.33;;;-2.80;99.90;;;;;;5013648;28;20244;-88
2023/01/18 07:02:43;;;;;;;11.50;7.67;;;-2.70;99.90;;;;;;5013931;28;20419;-91
2023/01/18 07:05:09;;;;;;;11.60;6.10;;;-2.60;99.90;;;;;;5015675;28;20503;-90
2023/01/18 07:07:35;;;;;;;11.17;8.87;;;-2.80;99.90;;;;;;4998188;28;20186;-90
2023/01/18 07:10:00;;;;;;;10.50;6.73;;;-2.80;99.90;;;;;;5015538;28;20170;-88
2023/01/18 07:12:26;;;;;;;18.80;9.17;;;-2.60;99.90;;;;;;5015488;28;20176;-90
2023/01/18 07:14:51;;;;;;;20.13;9.50;;;-2.60;99.90;;;;;;5014987;28;20231;-91
2023/01/18 07:17:17;;;;;;;18.40;8.80;;;-2.60;99.90;;;;;;5014508;28;20172;-88
2023/01/18 07:19:43;;;;;;;14.40;7.47;;;-2.60;99.90;;;;;;5013870;28;20185;-89
2023/01/18 07:22:12;;;;;;;13.53;7.10;;;-2.70;99.90;;;;;;5014910;28;20325;-91
2023/01/18 07:24:37;;;;;;;11.80;8.00;;;-2.80;99.90;;;;;;5013603;28;20473;-92
2023/01/18 07:27:03;;;;;;;12.07;7.00;;;-3.00;99.90;;;;;;5013739;28;20450;-91
2023/01/18 07:29:28;;;;;;;9.33;7.93;;;-2.80;99.90;;;;;;4953932;28;20251;-88
2023/01/18 07:31:57;;;;;;;21.63;8.90;;;-2.80;99.90;;;;;;4962172;28;20210;-89
2023/01/18 07:34:23;;;;;;;16.33;9.07;;;-2.80;99.90;;;;;;4977412;28;20210;-89
2023/01/18 07:36:48;;;;;;;13.43;8.50;;;-2.80;99.90;;;;;;4977263;28;20420;-87
2023/01/18 07:39:15;;;;;;;15.13;8.67;;;-2.90;99.90;;;;;;4976847;28;20181;-88
2023/01/18 07:41:41;;;;;;;15.93;8.00;;;-2.80;99.90;;;;;;4977243;28;20278;-88
2023/01/18 07:44:09;;;;;;;11.00;8.27;;;-2.80;99.90;;;;;;4961286;28;20921;-87
2023/01/18 07:46:34;;;;;;;14.00;8.23;;;-2.90;99.90;;;;;;4977009;28;20185;-88
2023/01/18 07:49:04;;;;;;;14.43;9.30;;;-2.90;99.90;;;;;;4960379;28;20477;-88
2023/01/18 07:51:31;;;;;;;12.40;7.33;;;-3.00;99.90;;;;;;4977014;28;20192;-88
2023/01/18 07:53:56;;;;;;;20.50;9.80;;;-2.70;99.90;;;;;;4994042;28;20420;-89
2023/01/18 07:56:24;;;;;;;18.10;9.30;;;-2.50;99.90;;;;;;4976957;28;20430;-89
2023/01/18 07:58:51;;;;;;;13.30;7.50;;;-2.40;99.90;;;;;;4981487;28;20980;-87
2023/01/18 08:01:21;;;;;;;20.00;9.50;;;-2.30;99.90;;;;;;4998898;28;20439;-87
2023/01/18 08:03:48;;;;;;;13.10;9.20;;;-2.20;99.90;;;;;;4981446;28;20523;-91
2023/01/18 08:06:18;;;;;;;10.53;7.23;;;-2.20;99.90;;;;;;4983131;28;20424;-89
2023/01/18 08:08:44;;;;;;;12.63;8.70;;;-2.10;99.90;;;;;;4975764;28;20432;-89
2023/01/18 08:11:26;;;;;;;12.80;7.87;;;-2.10;99.90;;;;;;4993091;28;20575;-87
2023/01/18 08:13:51;;;;;;;14.50;8.27;;;-2.00;99.90;;;;;;4993483;28;20428;-88
2023/01/18 08:16:17;;;;;;;14.50;8.93;;;-2.00;99.90;;;;;;5006822;28;20483;-88
2023/01/18 08:18:44;;;;;;;12.50;8.33;;;-1.90;99.90;;;;;;5002384;28;20239;-86
2023/01/18 08:21:11;;;;;;;12.67;7.33;;;-1.90;99.90;;;;;;4985135;28;20428;-87
2023/01/18 08:23:38;;;;;;;11.80;7.30;;;-1.80;99.90;;;;;;5018761;28;20944;-88
2023/01/18 08:26:05;;;;;;;14.17;8.07;;;-1.80;99.90;;;;;;5003001;28;20483;-86
2023/01/18 08:28:32;;;;;;;16.30;9.40;;;-1.70;99.90;;;;;;5019141;28;20417;-80
2023/01/18 08:31:20;;;;;;;14.03;7.43;;;-1.60;99.90;;;;;;4992425;28;20422;-87
2023/01/18 08:33:47;;;;;;;16.50;6.60;;;-1.50;99.90;;;;;;5020074;28;20426;-82
2023/01/18 08:36:19;;;;;;;12.00;8.07;;;-1.50;99.90;;;;;;5004015;28;20568;-85
2023/01/18 08:38:54;;;;;;;11.40;8.80;;;-1.40;99.90;;;;;;5021010;28;20446;-85
2023/01/18 08:41:21;;;;;;;14.00;9.00;;;-1.30;99.90;;;;;;5021765;28;20428;-87
2023/01/18 08:43:49;;;;;;;11.30;7.73;;;-1.20;99.90;;;;;;5020427;28;20417;-86
2023/01/18 08:46:15;;;;;;;15.93;9.70;;;-1.10;99.90;;;;;;5002574;28;20427;-86
2023/01/18 08:48:42;;;;;;;16.90;8.67;;;-0.90;99.90;;;;;;5002313;28;20417;-87
2023/01/18 08:51:08;;;;;;;15.47;8.90;;;-0.70;99.90;;;;;;5018858;28;20529;-82
2023/01/18 08:53:34;;;;;;;14.73;8.60;;;-0.50;99.90;;;;;;5002876;28;20461;-88
2023/01/18 08:56:05;;;;;;;15.73;8.80;;;-0.30;99.90;;;;;;5004464;28;20420;-89
2023/01/18 08:58:32;;;;;;;17.17;10.80;;;-0.20;99.90;;;;;;5004126;28;20171;-88
2023/01/18 09:00:57;;;;;;;14.83;11.03;;;0.10;99.90;;;;;;5021393;28;20520;-87
2023/01/18 09:03:24;;;;;;;10.83;7.40;;;0.30;99.90;;;;;;5018538;28;20445;-84
2023/01/18 09:05:49;;;;;;;14.47;9.93;;;0.40;99.90;;;;;;4998762;28;20787;-87
2023/01/18 09:08:16;;;;;;;15.07;7.40;;;0.60;99.90;;;;;;4997897;28;20498;-85
2023/01/18 09:10:42;;;;;;;15.50;9.00;;;0.70;35.80;;;;;;4998726;28;20270;-88
2023/01/18 09:13:09;;;;;;;12.70;9.33;;;1.10;54.70;;;;;;5015640;28;20551;-89
2023/01/18 09:15:35;;;;;;;15.77;9.73;;;1.10;1.00;;;;;;4999229;28;20180;-89
2023/01/18 09:18:04;;;;;;;14.33;7.50;;;1.30;1.00;;;;;;4998876;28;20412;-87
2023/01/18 09:20:31;;;;;;;14.37;8.90;;;1.40;1.00;;;;;;4999601;28;20411;-89
2023/01/18 09:22:56;;;;;;;11.90;7.67;;;1.50;1.00;;;;;;4998796;28;20414;-87
2023/01/18 09:25:22;;;;;;;13.17;8.60;;;1.60;1.00;;;;;;4998146;28;20914;-87
2023/01/18 09:27:47;;;;;;;13.20;8.90;;;1.70;1.00;;;;;;4998803;28;20222;-88
2023/01/18 09:30:14;;;;;;;17.43;9.53;;;1.80;1.00;;;;;;4998241;28;20259;-88
2023/01/18 09:32:40;;;;;;;12.73;8.00;;;2.00;1.00;;;;;;4966512;28;20219;-88
2023/01/18 09:35:07;;;;;;;14.70;8.50;;;1.90;1.00;;;;;;4998438;28;20430;-87
2023/01/18 09:37:33;;;;;;;14.53;8.90;;;1.70;1.00;;;;;;4990199;28;20200;-86
2023/01/18 09:39:59;;;;;;;13.60;7.90;;;1.70;1.00;;;;;;5015406;28;20406;-85
2023/01/18 09:42:39;;;;;;;9.17;6.40;;;2.10;1.00;;;;;;5015787;28;20263;-87
2023/01/18 09:45:15;;;;;;;11.47;7.00;;;2.00;1.00;;;;;;5015663;28;20889;-88
2023/01/18 09:47:45;;;;;;;15.17;8.63;;;1.70;1.00;;;;;;4998097;28;20410;-86
2023/01/18 09:50:20;;;;;;;14.30;8.07;;;1.80;1.00;;;;;;5015391;28;20454;-88
2023/01/18 09:53:19;;;;;;;12.43;7.20;;;1.90;1.00;;;;;;5016412;28;20785;-87
2023/01/18 09:56:15;;;;;;;15.70;8.93;;;1.80;1.00;;;;;;4997872;28;20434;-83
2023/01/18 09:59:06;;;;;;;12.33;8.10;;;1.40;1.00;;;;;;4997794;28;20945;-89
2023/01/18 10:01:33;;;;;;;10.50;7.03;;;1.30;1.00;;;;;;5015350;28;20429;-83
2023/01/18 10:04:11;;;;;;;12.23;7.00;;;1.70;1.00;;;;;;4997113;28;20468;-82
2023/01/18 10:06:49;;;;;;;11.53;7.20;;;1.90;1.00;;;;;;4997352;28;20510;-82
2023/01/18 10:09:22;;;;;;;11.07;8.47;;;2.00;1.00;;;;;;4996854;28;20428;-85
2023/01/18 10:12:01;;;;;;;11.67;8.17;;;2.10;1.00;;;;;;4997322;28;20417;-85
2023/01/18 10:14:49;;;;;;;12.77;6.80;;;2.20;1.00;;;;;;5015009;28;20501;-83
2023/01/18 10:17:21;;;;;;;14.03;8.70;;;2.20;1.00;;;;;;4997367;28;20429;-82
2023/01/18 10:19:48;;;;;;;12.30;8.10;;;2.40;1.00;;;;;;5014519;28;20416;-84
2023/01/18 10:22:47;;;;;;;11.40;6.77;;;2.60;1.00;;;;;;4997109;28;20468;-84
2023/01/18 10:25:34;;;;;;;12.27;6.60;;;2.60;99.90;;;;;;4996811;28;20805;-82
2023/01/18 10:28:23;;;;;;;14.70;6.43;;;2.60;99.90;;;;;;5014716;28;20987;-83
2023/01/18 10:31:33;;;;;;;14.23;8.30;;;2.50;99.90;;;;;;5005627;28;20808;-87
2023/01/18 10:34:01;;;;;;;15.60;10.13;;;2.70;99.90;;;;;;4968162;28;20451;-86
2023/01/18 10:36:40;;;;;;;8.90;7.00;;;2.70;99.90;;;;;;4994940;28;20421;-84
2023/01/18 10:39:24;;;;;;;41.67;26.90;;;2.90;99.90;;;;;;4994558;28;20413;-82
2023/01/18 10:41:50;;;;;;;38.73;26.60;;;2.80;99.90;;;;;;4977649;28;20436;-84
2023/01/18 10:44:15;;;;;;;11.93;7.80;;;3.40;99.90;;;;;;4994840;28;20494;-86
2023/01/18 10:46:41;;;;;;;15.50;9.03;;;3.60;1.00;;;;;;4994595;28;20468;-83
2023/01/18 10:49:08;;;;;;;10.60;6.87;;;4.00;1.00;;;;;;4994735;28;20170;-82
2023/01/18 10:51:35;;;;;;;12.47;8.10;;;4.40;1.00;;;;;;4994671;28;20650;-83
2023/01/18 10:54:25;;;;;;;12.07;7.13;;;4.50;36.50;;;;;;4994556;28;20413;-83
2023/01/18 10:57:02;;;;;;;14.00;7.87;;;5.10;99.90;;;;;;4995148;28;20410;-83
2023/01/18 10:59:35;;;;;;;9.37;6.93;;;5.20;99.90;;;;;;4995118;28;20416;-87
2023/01/18 11:02:01;;;;;;;12.47;7.87;;;5.10;1.00;;;;;;4996311;28;20408;-87
2023/01/18 11:04:29;;;;;;;11.30;8.07;;;4.90;99.90;;;;;;4996041;28;20468;-85
2023/01/18 11:06:58;;;;;;;13.53;7.10;;;5.00;99.90;;;;;;4996463;28;20424;-88
2023/01/18 11:09:50;;;;;;;12.40;7.43;;;5.10;1.00;;;;;;4978468;28;20415;-87
2023/01/18 11:12:40;;;;;;;11.30;7.87;;;5.00;99.90;;;;;;4994600;28;20440;-82
2023/01/18 11:15:14;;;;;;;9.47;6.47;;;5.30;99.90;;;;;;4977676;28;20421;-86
2023/01/18 11:17:49;;;;;;;13.03;7.90;;;5.90;1.00;;;;;;4996152;28;20419;-88
2023/01/18 11:20:19;;;;;;;11.37;6.30;;;5.70;99.90;;;;;;4996886;28;20465;-86
2023/01/18 11:23:04;;;;;;;9.17;6.10;;;5.60;1.00;;;;;;4979764;28;20512;-84
2023/01/18 11:25:49;;;;;;;9.60;5.53;;;5.40;1.00;;;;;;4996159;28;20562;-86
2023/01/18 11:28:18;;;;;;;9.50;4.57;;;6.40;99.90;;;;;;4995478;28;20420;-88
2023/01/18 11:30:56;;;;;;;12.10;5.83;;;6.40;99.90;;;;;;4977314;28;20472;-89
2023/01/18 11:33:24;;;;;;;7.83;4.67;;;6.10;99.90;;;;;;4994551;28;20420;-88
2023/01/18 11:35:59;;;;;;;9.17;5.77;;;5.20;1.00;;;;;;4995106;28;20503;-90
2023/01/18 11:38:30;;;;;;;10.90;6.10;;;4.40;99.90;;;;;;4994797;28;20511;-87
2023/01/18 11:41:11;;;;;;;11.50;6.83;;;4.70;1.00;;;;;;4995332;28;20930;-87
2023/01/18 11:43:38;;;;;;;9.10;6.50;;;5.00;20.80;;;;;;4977541;28;20432;-88
2023/01/18 11:46:30;;;;;;;12.17;6.07;;;5.00;1.00;;;;;;4978538;28;20972;-87
2023/01/18 11:49:13;;;;;;;8.97;5.40;;;4.60;99.90;;;;;;4977963;28;20419;-89
2023/01/18 11:52:01;;;;;;;7.27;6.27;;;4.60;99.90;;;;;;4995679;28;20413;-89
2023/01/18 11:54:37;;;;;;;12.90;7.00;;;4.80;36.20;;;;;;4977649;28;21007;-87
2023/01/18 11:57:03;;;;;;;7.67;4.87;;;5.20;1.00;;;;;;4996090;28;20420;-88
2023/01/18 11:59:44;;;;;;;12.87;5.23;;;5.20;1.00;;;;;;4978164;28;20415;-84
2023/01/18 12:02:25;;;;;;;8.60;4.30;;;4.70;1.00;;;;;;4997489;28;20203;-84
2023/01/18 12:05:29;;;;;;;9.50;6.03;;;4.30;1.00;;;;;;4978067;28;20509;-85
2023/01/18 12:08:15;;;;;;;10.40;6.73;;;4.40;1.00;;;;;;4995817;28;20424;-87
2023/01/18 12:10:47;;;;;;;8.40;5.50;;;4.20;1.00;;;;;;4995925;28;20402;-88
2023/01/18 12:13:34;;;;;;;8.67;5.60;;;4.20;33.50;;;;;;4996622;28;20810;-88
2023/01/18 12:16:20;;;;;;;11.93;6.97;;;4.10;1.00;;;;;;4996401;28;20489;-84
2023/01/18 12:18:46;;;;;;;10.97;5.70;;;4.00;99.90;;;;;;4997357;28;20402;-88
2023/01/18 12:21:23;;;;;;;9.33;6.33;;;4.00;99.90;;;;;;4980680;28;20416;-87
2023/01/18 12:24:10;;;;;;;11.03;5.30;;;4.30;1.00;;;;;;4980132;28;20232;-88
2023/01/18 12:26:48;;;;;;;7.47;4.97;;;4.50;99.90;;;;;;4980161;28;20468;-86
2023/01/18 12:29:23;;;;;;;8.30;5.80;;;4.60;99.90;;;;;;4978704;28;20473;-88
2023/01/18 12:32:34;;;;;;;8.60;5.87;;;4.70;1.00;;;;;;4998417;28;20453;-86
2023/01/18 12:35:14;;;;;;;8.97;5.67;;;4.70;99.90;;;;;;5000845;28;20418;-87
2023/01/18 12:38:05;;;;;;;9.47;5.77;;;5.10;1.00;;;;;;4999607;28;20418;-89
2023/01/18 12:41:14;;;;;;;9.27;5.80;;;5.70;1.00;;;;;;4981188;28;20432;-87
2023/01/18 12:44:18;;;;;;;12.73;6.40;;;6.40;99.90;;;;;;4984056;28;20428;-89
2023/01/18 12:47:14;;;;;;;11.73;5.93;;;6.70;99.90;;;;;;5003507;28;20419;-87
2023/01/18 12:49:50;;;;;;;8.93;5.90;;;7.30;99.90;;;;;;5003761;28;20465;-89
2023/01/18 12:52:22;;;;;;;9.07;5.60;;;7.10;99.90;;;;;;4985902;28;20517;-89
2023/01/18 12:54:54;;;;;;;8.13;4.87;;;6.00;99.90;;;;;;4986467;28;20415;-87
2023/01/18 12:57:23;;;;;;;13.77;6.70;;;5.30;1.00;;;;;;5004648;28;20421;-89
2023/01/18 13:00:01;;;;;;;9.13;5.90;;;4.90;99.90;;;;;;5003582;28;20411;-87
2023/01/18 13:02:40;;;;;;;9.57;5.67;;;4.90;1.00;;;;;;5004574;28;20411;-88
2023/01/18 13:05:34;;;;;;;8.13;5.50;;;4.90;18.80;;;;;;4984587;28;20475;-88
2023/01/18 13:08:10;;;;;;;8.00;5.93;;;4.70;1.00;;;;;;4984649;28;20426;-90
2023/01/18 13:10:37;;;;;;;7.03;5.50;;;4.60;99.90;;;;;;5002241;28;20416;-85
2023/01/18 13:13:04;;;;;;;11.43;6.37;;;4.50;99.90;;;;;;5001945;28;20448;-89
2023/01/18 13:15:43;;;;;;;9.47;5.03;;;4.30;1.00;;;;;;4983722;28;20431;-87
2023/01/18 13:18:24;;;;;;;6.67;5.77;;;4.40;1.00;;;;;;4984196;28;20433;-89
2023/01/18 13:21:20;;;;;;;9.57;6.07;;;4.30;99.90;;;;;;4983215;28;20432;-90
2023/01/18 13:23:56;;;;;;;12.43;7.00;;;4.30;1.00;;;;;;4981948;28;20419;-87
2023/01/18 13:26:23;;;;;;;8.20;5.13;;;4.30;1.00;;;;;;4982410;28;20439;-88
2023/01/18 13:29:10;;;;;;;13.23;5.93;;;4.30;1.00;;;;;;5000559;28;20499;-88
2023/01/18 13:31:37;;;;;;;7.53;4.87;;;4.10;99.90;;;;;;4981328;28;20427;-87
2023/01/18 13:34:03;;;;;;;8.43;4.10;;;3.90;99.90;;;;;;4979192;28;20417;-88
2023/01/18 13:36:43;;;;;;;10.80;6.20;;;3.80;99.90;;;;;;4979247;28;20432;-89
2023/01/18 13:39:16;;;;;;;10.13;6.83;;;4.00;1.00;;;;;;4978752;28;20476;-84
2023/01/18 13:42:01;;;;;;;9.40;5.47;;;4.00;1.00;;;;;;4978755;28;20930;-83
2023/01/18 13:44:48;;;;;;;9.80;5.70;;;3.80;93.20;;;;;;4978354;28;21000;-86
2023/01/18 13:47:44;;;;;;;8.10;5.57;;;3.60;1.00;;;;;;4980192;28;20438;-82